createdAt,value
2022-08-26T00:00:38.739Z,10.47
2022-08-26T00:02:00.061Z,9.38
2022-08-26T00:03:21.715Z,7.79
2022-08-26T00:04:43.118Z,11.11
2022-08-26T00:06:06.582Z,9.57
2022-08-26T00:07:29.592Z,9.21
2022-08-26T00:08:51.387Z,11.07
2022-08-26T00:10:14.364Z,12.77
2022-08-26T00:11:36.131Z,10.09
2022-08-26T00:12:57.343Z,11.27
2022-08-26T00:14:18.627Z,12.42
2022-08-26T00:15:39.869Z,12.26
2022-08-26T00:17:01.779Z,8.12
2022-08-26T00:18:23.082Z,10.84
2022-08-26T00:19:46.297Z,10.43
2022-08-26T00:21:09.261Z,10.81
2022-08-26T00:22:30.956Z,10.72
2022-08-26T00:23:52.688Z,9.16
2022-08-26T00:25:14.467Z,9.15
2022-08-26T00:26:38.758Z,12.37
2022-08-26T00:28:02.195Z,8.44
2022-08-26T00:29:23.180Z,9.76
2022-08-26T00:30:45.217Z,9.74
2022-08-26T00:32:06.826Z,11.70
2022-08-26T00:33:28.385Z,11.11
2022-08-26T00:34:49.950Z,12.63
2022-08-26T00:36:19.966Z,11.31
2022-08-26T00:38:55.272Z,9.02
2022-08-26T00:40:21.147Z,10.36
2022-08-26T00:41:42.684Z,11.44
2022-08-26T00:44:13.725Z,10.40
2022-08-26T00:46:56.110Z,7.45
2022-08-26T00:48:19.256Z,12.72
2022-08-26T00:49:42.417Z,10.10
2022-08-26T00:51:07.902Z,9.43
2022-08-26T00:52:28.985Z,15.74
2022-08-26T00:53:57.250Z,13.63
2022-08-26T00:55:38.722Z,13.05
2022-08-26T00:57:02.542Z,11.34
2022-08-26T00:58:26.449Z,12.85
2022-08-26T00:59:50.415Z,9.70
2022-08-26T01:01:12.270Z,12.79
2022-08-26T01:02:33.908Z,14.87
2022-08-26T01:03:55.220Z,13.54
2022-08-26T01:06:28.346Z,10.41
2022-08-26T01:07:50.339Z,17.32
2022-08-26T01:09:11.940Z,12.90
2022-08-26T01:10:34.590Z,15.98
2022-08-26T01:11:57.298Z,16.12
2022-08-26T01:13:18.593Z,11.92
2022-08-26T01:14:41.521Z,10.84
2022-08-26T01:16:05.568Z,12.01
2022-08-26T01:17:27.643Z,10.60
2022-08-26T01:18:50.026Z,13.17
2022-08-26T01:20:34.941Z,10.36
2022-08-26T01:22:01.486Z,13.97
2022-08-26T01:23:23.185Z,13.19
2022-08-26T01:24:44.718Z,11.25
2022-08-26T01:27:23.264Z,13.86
2022-08-26T01:28:45.079Z,12.40
2022-08-26T01:30:13.354Z,14.80
2022-08-26T01:31:37.758Z,13.00
2022-08-26T01:33:01.076Z,12.06
2022-08-26T01:34:30.522Z,11.01
2022-08-26T01:35:52.329Z,12.43
2022-08-26T01:37:21.470Z,13.58
2022-08-26T01:38:42.438Z,14.19
2022-08-26T01:40:06.447Z,13.69
2022-08-26T01:41:29.124Z,11.77
2022-08-26T01:42:51.686Z,11.35
2022-08-26T01:44:17.959Z,15.78
2022-08-26T01:45:39.816Z,12.49
2022-08-26T01:47:01.751Z,7.36
2022-08-26T01:48:26.602Z,12.40
2022-08-26T01:49:49.167Z,13.50
2022-08-26T01:51:12.566Z,11.24
2022-08-26T01:52:35.051Z,10.04
2022-08-26T01:53:56.900Z,11.43
2022-08-26T01:55:32.212Z,10.18
2022-08-26T01:56:43.540Z,11.87
2022-08-26T01:58:07.586Z,12.14
2022-08-26T01:59:29.274Z,13.16
2022-08-26T02:00:51.039Z,10.44
2022-08-26T02:02:12.442Z,14.07
2022-08-26T02:03:33.989Z,11.37
2022-08-26T02:04:59.097Z,10.41
2022-08-26T02:06:22.757Z,10.86
2022-08-26T02:07:43.778Z,9.94
2022-08-26T02:09:05.487Z,8.12
2022-08-26T02:10:26.768Z,14.55
2022-08-26T02:11:48.581Z,8.62
2022-08-26T02:13:10.993Z,11.15
2022-08-26T02:14:36.943Z,14.26
2022-08-26T02:16:00.542Z,10.98
2022-08-26T02:18:41.493Z,8.76
2022-08-26T02:20:06.874Z,8.54
2022-08-26T02:21:30.086Z,10.37
2022-08-26T02:22:52.003Z,11.69
2022-08-26T02:25:35.022Z,10.29
2022-08-26T02:26:56.880Z,11.02
2022-08-26T02:28:18.010Z,11.16
2022-08-26T02:29:43.154Z,12.78
2022-08-26T02:31:04.857Z,12.95
2022-08-26T02:32:26.008Z,10.83
2022-08-26T02:33:48.807Z,10.45
2022-08-26T02:35:12.661Z,13.63
2022-08-26T02:37:56.584Z,11.09
2022-08-26T02:39:22.266Z,14.23
2022-08-26T02:40:43.271Z,13.16
2022-08-26T02:42:04.870Z,13.39
2022-08-26T02:43:31.396Z,12.93
2022-08-26T02:44:49.643Z,11.91
2022-08-26T02:46:12.493Z,12.27
2022-08-26T02:47:35.458Z,10.09
2022-08-26T02:48:57.542Z,12.29
2022-08-26T02:50:20.523Z,10.56
2022-08-26T02:51:43.060Z,12.74
2022-08-26T02:53:04.616Z,12.79
2022-08-26T02:54:27.371Z,12.54
2022-08-26T02:55:48.714Z,12.28
2022-08-26T02:57:11.004Z,12.56
2022-08-26T02:58:32.328Z,9.97
2022-08-26T02:59:53.473Z,11.98
2022-08-26T03:01:26.048Z,12.08
2022-08-26T03:02:47.412Z,10.56
2022-08-26T03:04:10.986Z,14.17
2022-08-26T03:05:34.133Z,12.49
2022-08-26T03:06:55.952Z,13.94
2022-08-26T03:08:17.270Z,14.08
2022-08-26T03:09:39.268Z,15.76
2022-08-26T03:11:01.708Z,11.69
2022-08-26T03:12:23.426Z,12.89
2022-08-26T03:15:16.438Z,14.93
2022-08-26T03:16:34.634Z,14.37
2022-08-26T03:17:56.100Z,15.17
2022-08-26T03:19:18.577Z,12.53
2022-08-26T03:20:40.473Z,12.58
2022-08-26T03:22:02.429Z,15.85
2022-08-26T03:23:23.857Z,15.94
2022-08-26T03:24:46.116Z,14.59
2022-08-26T03:26:08.434Z,18.21
2022-08-26T03:27:31.625Z,20.44
2022-08-26T03:28:54.329Z,17.28
2022-08-26T03:30:17.551Z,13.82
2022-08-26T03:31:38.580Z,14.75
2022-08-26T03:33:01.721Z,17.09
2022-08-26T03:34:23.399Z,18.52
2022-08-26T03:35:45.431Z,18.27
2022-08-26T03:37:07.000Z,22.06
2022-08-26T03:38:28.361Z,22.25
2022-08-26T03:39:49.782Z,16.02
2022-08-26T03:41:11.390Z,17.07
2022-08-26T03:42:34.652Z,16.47
2022-08-26T03:43:59.701Z,15.99
2022-08-26T03:45:19.122Z,18.70
2022-08-26T03:46:41.258Z,14.26
2022-08-26T03:48:04.886Z,17.79
2022-08-26T03:49:26.083Z,15.30
2022-08-26T03:50:49.294Z,16.59
2022-08-26T03:52:12.385Z,21.97
2022-08-26T03:53:33.814Z,19.06
2022-08-26T03:54:58.167Z,17.66
2022-08-26T03:56:20.680Z,22.02
2022-08-26T03:57:41.887Z,23.37
2022-08-26T03:59:03.954Z,20.07
2022-08-26T04:00:27.510Z,18.91
2022-08-26T04:01:49.038Z,17.50
2022-08-26T04:03:12.161Z,19.30
2022-08-26T04:04:34.454Z,16.07
2022-08-26T04:05:55.930Z,17.12
2022-08-26T04:07:17.680Z,16.17
2022-08-26T04:08:39.229Z,16.14
2022-08-26T04:10:01.363Z,16.49
2022-08-26T04:11:25.591Z,18.04
2022-08-26T04:12:46.950Z,12.82
2022-08-26T04:14:11.051Z,14.13
2022-08-26T04:15:32.073Z,12.91
2022-08-26T04:16:55.570Z,16.22
2022-08-26T04:18:17.093Z,17.03
2022-08-26T04:19:39.264Z,15.10
2022-08-26T04:21:00.706Z,19.94
2022-08-26T04:23:47.831Z,19.98
2022-08-26T04:25:10.468Z,20.08
2022-08-26T04:26:32.584Z,18.76
2022-08-26T04:27:54.865Z,17.37
2022-08-26T04:29:21.413Z,18.04
2022-08-26T04:30:43.834Z,23.46
2022-08-26T04:32:05.854Z,16.88
2022-08-26T04:33:32.291Z,19.73
2022-08-26T04:34:50.448Z,26.93
2022-08-26T04:36:13.931Z,18.52
2022-08-26T04:38:56.549Z,21.94
2022-08-26T04:40:18.940Z,25.26
2022-08-26T04:41:41.380Z,22.29
2022-08-26T04:43:03.198Z,16.14
2022-08-26T04:45:48.092Z,20.45
2022-08-26T04:48:32.203Z,23.19
2022-08-26T04:49:57.573Z,35.79
2022-08-26T04:51:19.533Z,25.37
2022-08-26T04:52:42.104Z,31.63
2022-08-26T04:54:03.892Z,34.59
2022-08-26T04:55:38.461Z,31.09
2022-08-26T04:56:50.012Z,28.11
2022-08-26T04:58:14.142Z,27.17
2022-08-26T04:59:39.127Z,22.69
2022-08-26T05:00:59.247Z,25.61
2022-08-26T05:02:20.735Z,21.17
2022-08-26T05:03:42.150Z,24.36
2022-08-26T05:05:05.467Z,20.16
2022-08-26T05:06:30.400Z,22.38
2022-08-26T05:07:53.339Z,18.73
2022-08-26T05:09:15.487Z,21.28
2022-08-26T05:12:00.043Z,15.42
2022-08-26T05:13:23.117Z,18.57
2022-08-26T05:14:44.329Z,21.04
2022-08-26T05:16:09.615Z,22.07
2022-08-26T05:17:32.696Z,27.13
2022-08-26T05:18:53.974Z,32.36
2022-08-26T05:20:22.649Z,27.03
2022-08-26T05:21:42.889Z,29.20
2022-08-26T05:23:05.437Z,32.77
2022-08-26T05:24:29.199Z,26.19
2022-08-26T05:25:54.702Z,27.19
2022-08-26T05:27:16.665Z,24.26
2022-08-26T05:28:39.703Z,24.85
2022-08-26T05:31:24.420Z,27.32
2022-08-26T05:32:48.184Z,23.16
2022-08-26T05:34:09.785Z,29.98
2022-08-26T05:35:31.292Z,23.93
2022-08-26T05:36:54.007Z,31.36
2022-08-26T05:38:19.077Z,26.25
2022-08-26T05:39:41.238Z,23.31
2022-08-26T05:41:03.927Z,29.67
2022-08-26T05:42:26.406Z,21.94
2022-08-26T05:43:48.355Z,20.19
2022-08-26T05:45:12.364Z,15.67
2022-08-26T05:46:34.748Z,16.06
2022-08-26T05:47:58.286Z,17.18
2022-08-26T05:50:44.554Z,18.16
2022-08-26T05:52:06.311Z,14.87
2022-08-26T05:53:27.919Z,19.43
2022-08-26T05:54:49.681Z,21.11
2022-08-26T05:56:12.178Z,23.32
2022-08-26T05:57:37.436Z,18.34
2022-08-26T05:58:58.598Z,19.20
2022-08-26T06:01:35.710Z,12.20
2022-08-26T06:02:57.579Z,12.92
2022-08-26T06:04:18.935Z,20.66
2022-08-26T06:07:03.705Z,16.41
2022-08-26T06:08:26.825Z,19.50
2022-08-26T06:09:48.203Z,15.43
2022-08-26T06:11:18.661Z,21.36
2022-08-26T06:12:36.497Z,16.71
2022-08-26T06:14:03.983Z,18.18
2022-08-26T06:15:24.138Z,14.08
2022-08-26T06:18:10.166Z,16.47
2022-08-26T06:19:33.095Z,18.38
2022-08-26T06:20:57.663Z,13.12
2022-08-26T06:22:23.618Z,12.43
2022-08-26T06:23:42.376Z,15.48
2022-08-26T06:25:05.670Z,14.67
2022-08-26T06:26:27.676Z,12.43
2022-08-26T06:27:49.215Z,14.39
2022-08-26T06:29:10.602Z,13.55
2022-08-26T06:30:39.289Z,13.26
2022-08-26T06:32:02.545Z,17.42
2022-08-26T06:33:24.700Z,14.84
2022-08-26T06:34:46.840Z,14.27
2022-08-26T06:37:31.334Z,13.01
2022-08-26T06:38:54.960Z,19.07
2022-08-26T06:40:18.330Z,14.44
2022-08-26T06:41:43.384Z,9.98
2022-08-26T06:43:04.380Z,11.75
2022-08-26T06:44:26.505Z,14.26
2022-08-26T06:45:48.137Z,12.17
2022-08-26T06:48:23.468Z,11.71
2022-08-26T06:49:45.620Z,15.53
2022-08-26T06:52:25.126Z,10.69
2022-08-26T06:53:47.488Z,14.88
2022-08-26T06:55:09.891Z,10.48
2022-08-26T06:58:04.589Z,12.61
2022-08-26T06:59:26.148Z,11.01
2022-08-26T07:00:48.268Z,9.29
2022-08-26T07:02:09.680Z,10.88
2022-08-26T07:03:34.942Z,14.38
2022-08-26T07:04:58.094Z,20.46
2022-08-26T07:07:31.486Z,8.50
2022-08-26T07:08:53.756Z,14.63
2022-08-26T07:10:17.552Z,10.64
2022-08-26T07:11:41.829Z,16.44
2022-08-26T07:13:04.083Z,18.45
2022-08-26T07:14:27.223Z,20.01
2022-08-26T07:15:48.958Z,16.44
2022-08-26T07:17:13.921Z,13.45
2022-08-26T07:18:35.927Z,11.19
2022-08-26T07:19:57.841Z,23.57
2022-08-26T07:21:19.383Z,40.67
2022-08-26T07:22:40.960Z,29.60
2022-08-26T07:24:04.021Z,14.80
2022-08-26T07:25:25.984Z,18.21
2022-08-26T07:26:47.444Z,15.68
2022-08-26T07:28:09.334Z,17.79
2022-08-26T07:29:33.857Z,17.58
2022-08-26T07:30:56.659Z,18.81
2022-08-26T07:32:19.538Z,16.46
2022-08-26T07:33:42.267Z,18.58
2022-08-26T07:35:04.897Z,13.13
2022-08-26T07:36:27.581Z,10.57
2022-08-26T07:37:51.048Z,10.18
2022-08-26T07:39:31.489Z,15.17
2022-08-26T07:40:54.484Z,9.59
2022-08-26T07:42:23.127Z,19.07
2022-08-26T07:43:47.765Z,11.21
2022-08-26T07:45:14.755Z,10.43
2022-08-26T07:48:03.980Z,10.39
2022-08-26T07:49:28.932Z,7.38
2022-08-26T07:50:56.295Z,13.21
2022-08-26T07:53:59.031Z,26.66
2022-08-26T07:55:21.747Z,16.22
2022-08-26T07:56:44.311Z,14.81
2022-08-26T07:58:06.379Z,8.66
2022-08-26T07:59:33.061Z,11.72
2022-08-26T08:00:58.380Z,9.60
2022-08-26T08:02:20.502Z,13.63
2022-08-26T08:03:47.485Z,11.19
2022-08-26T08:05:13.973Z,13.92
2022-08-26T08:08:19.741Z,13.53
2022-08-26T08:09:19.798Z,15.86
2022-08-26T08:10:44.825Z,12.04
2022-08-26T08:12:09.469Z,9.99
2022-08-26T08:13:32.870Z,11.48
2022-08-26T08:14:54.500Z,11.65
2022-08-26T08:16:18.867Z,9.74
2022-08-26T08:17:43.872Z,10.48
2022-08-26T08:19:05.928Z,11.86
2022-08-26T08:20:29.168Z,10.41
2022-08-26T08:21:51.571Z,8.89
2022-08-26T08:23:16.457Z,12.13
2022-08-26T08:24:38.086Z,10.15
2022-08-26T08:26:09.416Z,10.11
2022-08-26T08:27:37.671Z,9.23
2022-08-26T08:28:59.236Z,9.87
2022-08-26T08:31:58.321Z,9.54
2022-08-26T08:33:16.343Z,9.21
2022-08-26T08:34:37.979Z,13.73
2022-08-26T08:35:59.812Z,14.73
2022-08-26T08:37:23.613Z,16.46
2022-08-26T08:38:49.740Z,13.86
2022-08-26T08:40:14.613Z,17.24
2022-08-26T08:41:54.045Z,13.19
2022-08-26T08:43:32.306Z,15.01
2022-08-26T08:44:58.411Z,26.53
2022-08-26T08:46:23.421Z,9.66
2022-08-26T08:47:50.180Z,14.60
2022-08-26T08:52:08.706Z,14.27
2022-08-26T08:55:21.550Z,9.52
2022-08-26T08:57:11.384Z,7.68
2022-08-26T08:59:11.858Z,10.73
2022-08-26T09:12:30.660Z,10.22
2022-08-26T09:15:30.212Z,9.32
2022-08-26T09:17:01.655Z,13.66
2022-08-26T09:19:03.140Z,13.26
2022-08-26T09:20:37.353Z,9.98
2022-08-26T09:21:59.988Z,10.86
2022-08-26T09:23:25.237Z,14.06
2022-08-26T09:24:48.521Z,13.04
2022-08-26T09:26:41.777Z,17.64
2022-08-26T09:28:15.212Z,8.44
2022-08-26T09:29:50.401Z,9.53
2022-08-26T09:31:26.925Z,8.54
2022-08-26T09:33:00.652Z,18.57
2022-08-26T09:34:27.763Z,16.66
2022-08-26T09:35:54.917Z,17.31
2022-08-26T09:37:18.001Z,11.46
2022-08-26T09:38:39.940Z,9.71
2022-08-26T09:40:18.169Z,10.84
2022-08-26T09:41:40.847Z,14.63
2022-08-26T09:43:22.915Z,7.94
2022-08-26T09:46:23.608Z,10.96
2022-08-26T09:47:54.206Z,24.17
2022-08-26T09:49:25.445Z,12.94
2022-08-26T09:50:58.871Z,12.28
2022-08-26T09:52:24.747Z,15.53
2022-08-26T09:53:54.210Z,17.99
2022-08-26T09:55:24.179Z,13.44
2022-08-26T09:56:50.101Z,10.18
2022-08-26T09:58:15.778Z,10.93
2022-08-26T09:59:41.394Z,23.67
2022-08-26T10:01:30.209Z,12.79
2022-08-26T10:02:57.969Z,6.74
2022-08-26T10:04:22.853Z,13.12
2022-08-26T10:07:12.734Z,11.44
2022-08-26T10:08:38.393Z,14.00
2022-08-26T10:10:00.688Z,10.25
2022-08-26T10:11:25.879Z,11.02
2022-08-26T10:14:12.070Z,9.16
2022-08-26T10:15:50.675Z,7.33
2022-08-26T10:17:33.691Z,9.12
2022-08-26T10:31:18.469Z,8.41
2022-08-26T10:34:30.464Z,12.00
2022-08-26T10:36:05.212Z,12.87
2022-08-26T10:38:54.231Z,17.37
2022-08-26T10:40:43.452Z,12.01
2022-08-26T10:42:27.139Z,8.51
2022-08-26T10:43:52.778Z,17.33
2022-08-26T10:45:20.627Z,10.11
2022-08-26T10:46:50.844Z,10.51
2022-08-26T10:48:16.693Z,11.54
2022-08-26T10:49:45.797Z,7.49
2022-08-26T10:51:11.100Z,12.74
2022-08-26T10:52:39.662Z,7.20
2022-08-26T10:56:00.413Z,26.54
2022-08-26T10:57:26.371Z,25.16
2022-08-26T11:00:34.154Z,6.14
2022-08-26T11:02:32.581Z,10.76
2022-08-26T11:10:59.260Z,11.44
2022-08-26T11:14:02.183Z,7.28
2022-08-26T11:15:27.295Z,14.54
2022-08-26T11:16:53.444Z,23.56
2022-08-26T11:18:38.167Z,10.71
2022-08-26T11:20:02.141Z,6.94
2022-08-26T11:22:56.321Z,11.08
2022-08-26T11:24:49.536Z,29.44
2022-08-26T11:26:16.471Z,12.18
2022-08-26T11:27:44.009Z,14.52
2022-08-26T11:29:13.378Z,17.48
2022-08-26T11:32:30.757Z,9.46
2022-08-26T11:33:59.731Z,7.86
2022-08-26T11:35:25.234Z,9.89
2022-08-26T11:36:57.579Z,8.48
2022-08-26T11:39:57.138Z,14.00
2022-08-26T11:41:20.837Z,7.26
2022-08-26T11:42:44.625Z,6.53
2022-08-26T11:44:11.951Z,13.27
2022-08-26T11:47:29.421Z,8.91
2022-08-26T11:48:51.150Z,10.37
2022-08-26T11:52:22.822Z,8.96
2022-08-26T11:53:47.423Z,7.59
2022-08-26T11:55:14.287Z,14.36
2022-08-26T11:56:42.697Z,10.36
2022-08-26T11:58:06.583Z,9.18
2022-08-26T12:01:04.581Z,13.01
2022-08-26T12:02:27.901Z,21.56
2022-08-26T12:03:55.033Z,9.01
2022-08-26T12:05:26.843Z,10.39
2022-08-26T12:06:54.393Z,8.36
2022-08-26T12:08:24.987Z,7.13
2022-08-26T12:22:21.373Z,7.53
2022-08-26T12:23:54.325Z,10.14
2022-08-26T12:25:21.739Z,9.92
2022-08-26T12:26:49.901Z,11.79
2022-08-26T12:28:11.560Z,12.81
2022-08-26T12:29:34.756Z,24.43
2022-08-26T12:37:36.379Z,10.61
2022-08-26T12:39:15.896Z,5.79
2022-08-26T12:40:43.619Z,7.58
2022-08-26T12:42:21.444Z,12.06
2022-08-26T12:43:45.916Z,10.11
2022-08-26T12:45:09.377Z,8.37
2022-08-26T12:46:35.630Z,9.29
2022-08-26T12:48:05.180Z,9.11
2022-08-26T12:49:29.573Z,8.06
2022-08-26T12:50:53.839Z,8.49
2022-08-26T12:56:04.600Z,14.44
2022-08-26T12:57:34.777Z,10.36
2022-08-26T12:59:12.193Z,10.00
2022-08-26T13:00:43.680Z,15.28
2022-08-26T13:02:06.884Z,7.80
2022-08-26T13:03:36.739Z,11.47
2022-08-26T13:05:01.134Z,8.01
2022-08-26T13:06:28.678Z,13.63
2022-08-26T13:08:15.906Z,12.00
2022-08-26T13:09:42.270Z,9.70
2022-08-26T13:11:41.706Z,20.48
2022-08-26T13:13:05.739Z,12.50
2022-08-26T13:14:27.682Z,12.23
2022-08-26T13:19:10.637Z,7.17
2022-08-26T13:20:39.523Z,12.81
2022-08-26T13:22:03.059Z,8.67
2022-08-26T13:23:29.056Z,20.24
2022-08-26T13:24:55.246Z,12.06
2022-08-26T13:26:22.082Z,8.19
2022-08-26T13:27:47.093Z,6.62
2022-08-26T13:29:11.499Z,9.18
2022-08-26T13:30:36.214Z,8.82
2022-08-26T13:32:02.289Z,10.74
2022-08-26T13:33:24.466Z,16.02
2022-08-26T13:36:38.010Z,12.72
2022-08-26T13:38:08.968Z,14.58
2022-08-26T13:39:31.155Z,14.48
2022-08-26T13:42:16.808Z,11.42
2022-08-26T13:43:40.498Z,8.34
2022-08-26T13:45:04.993Z,8.32
2022-08-26T13:46:29.987Z,9.09
2022-08-26T13:48:07.888Z,12.38
2022-08-26T13:49:37.904Z,7.66
2022-08-26T13:50:59.587Z,10.12
2022-08-26T13:52:25.541Z,11.82
2022-08-26T13:55:05.588Z,9.46
2022-08-26T13:57:49.417Z,9.75
2022-08-26T14:02:05.709Z,13.93
2022-08-26T14:03:38.562Z,14.57
2022-08-26T14:05:00.117Z,11.39
2022-08-26T14:06:24.503Z,16.17
2022-08-26T14:07:45.857Z,7.42
2022-08-26T14:09:11.493Z,6.54
2022-08-26T14:10:35.870Z,10.49
2022-08-26T14:11:59.882Z,8.96
2022-08-26T14:13:25.456Z,10.72
2022-08-26T14:14:49.060Z,10.85
2022-08-26T14:16:15.728Z,11.08
2022-08-26T14:17:37.569Z,12.98
2022-08-26T14:20:17.909Z,11.23
2022-08-26T14:21:40.229Z,7.28
2022-08-26T14:23:14.374Z,9.05
2022-08-26T14:24:32.452Z,9.08
2022-08-26T14:25:55.581Z,5.89
2022-08-26T14:27:18.568Z,6.83
2022-08-26T14:28:45.458Z,10.03
2022-08-26T14:30:09.371Z,6.94
2022-08-26T14:31:32.818Z,12.52
2022-08-26T14:32:57.570Z,9.47
2022-08-26T14:34:18.786Z,9.39
2022-08-26T14:35:41.104Z,11.87
2022-08-26T14:37:13.555Z,15.78
2022-08-26T14:38:38.636Z,9.77
2022-08-26T14:40:04.462Z,14.13
2022-08-26T14:41:26.736Z,10.14
2022-08-26T14:42:52.743Z,12.59
2022-08-26T14:44:14.429Z,11.80
2022-08-26T14:47:01.247Z,9.73
2022-08-26T14:48:23.911Z,8.56
2022-08-26T14:49:46.195Z,24.09
2022-08-26T14:52:36.496Z,10.22
2022-08-26T14:54:00.217Z,9.79
2022-08-26T14:55:24.544Z,10.63
2022-08-26T14:56:57.304Z,13.59
2022-08-26T14:58:18.752Z,13.02
2022-08-26T14:59:42.954Z,6.27
2022-08-26T15:01:08.324Z,10.76
2022-08-26T15:02:34.881Z,8.87
2022-08-26T15:03:58.814Z,18.18
2022-08-26T15:05:23.510Z,9.68
2022-08-26T15:06:50.299Z,10.11
2022-08-26T15:08:12.597Z,9.49
2022-08-26T15:09:37.566Z,10.49
2022-08-26T15:11:01.082Z,13.98
2022-08-26T15:14:03.362Z,10.93
2022-08-26T15:15:28.821Z,7.40
2022-08-26T15:16:52.121Z,13.29
2022-08-26T15:18:15.985Z,10.32
2022-08-26T15:19:42.166Z,10.37
2022-08-26T15:21:04.256Z,10.88
2022-08-26T15:23:50.331Z,11.26
2022-08-26T15:25:13.002Z,8.55
2022-08-26T15:26:36.330Z,10.97
2022-08-26T15:27:58.407Z,17.07
2022-08-26T15:29:22.239Z,8.74
2022-08-26T15:32:10.090Z,8.21
2022-08-26T15:33:35.081Z,7.87
2022-08-26T15:34:58.645Z,10.26
2022-08-26T15:36:22.357Z,13.69
2022-08-26T15:37:43.977Z,14.31
2022-08-26T15:39:07.307Z,10.82
2022-08-26T15:40:30.726Z,10.84
2022-08-26T15:41:53.135Z,15.90
2022-08-26T15:44:39.379Z,11.54
2022-08-26T15:46:01.012Z,10.43
2022-08-26T15:47:22.798Z,9.66
2022-08-26T15:48:49.077Z,12.38
2022-08-26T15:50:12.905Z,14.35
2022-08-26T15:51:45.236Z,13.69
2022-08-26T15:54:33.424Z,13.77
2022-08-26T15:55:56.302Z,12.90
2022-08-26T15:58:43.332Z,13.46
2022-08-26T16:00:15.194Z,17.29
2022-08-26T16:01:36.795Z,16.67
2022-08-26T16:02:59.959Z,10.67
2022-08-26T16:04:26.164Z,10.94
2022-08-26T16:05:54.600Z,9.44
2022-08-26T16:07:17.882Z,9.38
2022-08-26T16:08:39.825Z,11.32
2022-08-26T16:10:02.645Z,10.99
2022-08-26T16:11:24.157Z,11.08
2022-08-26T16:12:45.811Z,14.03
2022-08-26T16:14:11.632Z,32.28
2022-08-26T16:15:34.186Z,11.15
2022-08-26T16:17:07.560Z,12.81
2022-08-26T16:19:54.906Z,11.49
2022-08-26T16:21:21.520Z,12.87
2022-08-26T16:22:42.821Z,9.13
2022-08-26T16:24:04.595Z,10.33
2022-08-26T16:25:33.916Z,11.48
2022-08-26T16:26:55.494Z,13.65
2022-08-26T16:28:17.566Z,15.78
2022-08-26T16:29:48.070Z,12.46
2022-08-26T16:31:18.484Z,10.65
2022-08-26T16:32:40.393Z,15.88
2022-08-26T16:34:04.795Z,13.41
2022-08-26T16:35:28.464Z,12.07
2022-08-26T16:36:53.890Z,14.22
2022-08-26T16:38:15.216Z,11.09
2022-08-26T16:39:40.209Z,9.84
2022-08-26T16:41:02.356Z,12.19
2022-08-26T16:42:24.058Z,15.65
2022-08-26T16:43:45.813Z,13.94
2022-08-26T16:45:09.753Z,11.75
2022-08-26T16:46:35.346Z,11.73
2022-08-26T16:47:59.011Z,8.58
2022-08-26T16:49:22.287Z,9.09
2022-08-26T16:50:48.522Z,9.14
2022-08-26T16:52:15.503Z,8.41
2022-08-26T16:53:37.308Z,12.49
2022-08-26T16:54:58.619Z,11.85
2022-08-26T16:56:22.317Z,15.44
2022-08-26T16:57:45.371Z,15.56
2022-08-26T16:59:10.551Z,10.62
2022-08-26T17:00:32.659Z,15.06
2022-08-26T17:03:25.148Z,15.16
2022-08-26T17:04:47.523Z,15.92
2022-08-26T17:06:13.505Z,15.92
2022-08-26T17:07:34.840Z,13.82
2022-08-26T17:08:58.622Z,12.00
2022-08-26T17:10:23.122Z,13.67
2022-08-26T17:11:44.460Z,12.96
2022-08-26T17:13:05.900Z,11.93
2022-08-26T17:14:28.145Z,12.19
2022-08-26T17:15:49.504Z,13.12
2022-08-26T17:17:10.833Z,14.17
2022-08-26T17:18:34.646Z,15.91
2022-08-26T17:19:59.436Z,17.91
2022-08-26T17:21:28.378Z,19.26
2022-08-26T17:22:54.715Z,14.61
2022-08-26T17:24:18.810Z,18.27
2022-08-26T17:25:48.777Z,16.36
2022-08-26T17:27:13.551Z,14.77
2022-08-26T17:28:39.205Z,13.18
2022-08-26T17:30:00.636Z,16.01
2022-08-26T17:31:24.429Z,11.83
2022-08-26T17:32:51.767Z,18.31
2022-08-26T17:35:49.169Z,13.24
2022-08-26T17:37:12.637Z,15.14
2022-08-26T17:38:35.550Z,21.72
2022-08-26T17:40:02.250Z,16.21
2022-08-26T17:41:24.339Z,17.96
2022-08-26T17:42:45.995Z,10.68
2022-08-26T17:44:08.148Z,14.63
2022-08-26T17:45:29.424Z,14.36
2022-08-26T17:46:53.932Z,14.21
2022-08-26T17:48:17.035Z,20.04
2022-08-26T17:49:40.129Z,11.49
2022-08-26T17:51:07.399Z,12.81
2022-08-26T17:52:29.045Z,12.01
2022-08-26T17:53:50.475Z,22.91
2022-08-26T17:55:13.690Z,16.88
2022-08-26T17:56:37.527Z,13.46
2022-08-26T17:58:00.011Z,14.30
2022-08-26T17:59:24.889Z,19.45
2022-08-26T18:00:49.317Z,14.37
2022-08-26T18:02:10.685Z,14.56
2022-08-26T18:03:32.003Z,14.67
2022-08-26T18:04:53.726Z,18.05
2022-08-26T18:06:15.977Z,17.57
2022-08-26T18:07:43.698Z,19.08
2022-08-26T18:09:01.321Z,13.11
2022-08-26T18:10:24.487Z,20.89
2022-08-26T18:11:46.138Z,15.64
2022-08-26T18:13:07.410Z,15.43
2022-08-26T18:14:28.787Z,17.83
2022-08-26T18:15:50.374Z,19.56
2022-08-26T18:18:24.493Z,14.06
2022-08-26T18:19:46.808Z,16.32
2022-08-26T18:22:34.967Z,15.58
2022-08-26T18:23:57.793Z,19.18
2022-08-26T18:25:19.370Z,18.49
2022-08-26T18:26:41.607Z,20.24
2022-08-26T18:28:03.265Z,15.22
2022-08-26T18:29:24.937Z,17.83
2022-08-26T18:30:47.771Z,20.80
2022-08-26T18:34:55.049Z,19.63
2022-08-26T18:37:34.082Z,27.70
2022-08-26T18:38:55.809Z,22.92
2022-08-26T18:40:18.355Z,20.39
2022-08-26T18:41:43.160Z,16.14
2022-08-26T18:43:04.709Z,18.57
2022-08-26T18:44:26.800Z,24.40
2022-08-26T18:45:49.070Z,17.51
2022-08-26T18:47:11.474Z,19.92
2022-08-26T18:48:33.089Z,21.16
2022-08-26T18:49:54.851Z,19.35
2022-08-26T18:52:42.201Z,26.43
2022-08-26T18:54:04.830Z,20.06
2022-08-26T18:55:28.529Z,20.30
2022-08-26T18:56:50.037Z,24.43
2022-08-26T18:58:11.896Z,22.17
2022-08-26T18:59:33.663Z,23.27
2022-08-26T19:00:55.223Z,20.08
2022-08-26T19:02:16.822Z,18.01
2022-08-26T19:03:39.891Z,20.68
2022-08-26T19:05:01.200Z,17.11
2022-08-26T19:07:45.317Z,18.42
2022-08-26T19:09:10.230Z,23.99
2022-08-26T19:11:46.648Z,20.84
2022-08-26T19:13:09.721Z,17.36
2022-08-26T19:14:31.306Z,17.26
2022-08-26T19:15:53.865Z,20.35
2022-08-26T19:17:15.280Z,17.25
2022-08-26T19:18:36.512Z,19.98
2022-08-26T19:19:58.701Z,22.79
2022-08-26T19:21:21.788Z,22.12
2022-08-26T19:22:43.941Z,23.96
2022-08-26T19:24:07.866Z,25.41
2022-08-26T19:25:32.196Z,20.76
2022-08-26T19:26:57.684Z,18.01
2022-08-26T19:28:19.410Z,22.12
2022-08-26T19:29:41.220Z,17.68
2022-08-26T19:31:02.463Z,24.17
2022-08-26T19:32:23.856Z,24.58
2022-08-26T19:33:45.630Z,23.46
2022-08-26T19:35:10.074Z,18.77
2022-08-26T19:36:32.584Z,27.73
2022-08-26T19:37:54.008Z,27.83
2022-08-26T19:39:15.364Z,27.26
2022-08-26T19:40:38.237Z,20.74
2022-08-26T19:41:59.285Z,23.11
2022-08-26T19:43:20.846Z,21.94
2022-08-26T19:44:44.530Z,24.23
2022-08-26T19:46:11.130Z,17.44
2022-08-26T19:47:34.458Z,21.76
2022-08-26T19:48:57.643Z,21.18
2022-08-26T19:50:20.570Z,20.32
2022-08-26T19:51:41.803Z,25.10
2022-08-26T19:53:03.327Z,21.87
2022-08-26T19:54:24.647Z,15.23
2022-08-26T19:55:46.210Z,16.06
2022-08-26T19:57:08.588Z,16.44
2022-08-26T19:58:30.244Z,18.98
2022-08-26T19:59:52.504Z,17.37
2022-08-26T20:01:13.982Z,17.02
2022-08-26T20:02:35.450Z,24.99
2022-08-26T20:03:57.015Z,26.89
2022-08-26T20:05:21.422Z,20.13
2022-08-26T20:06:42.915Z,25.11
2022-08-26T20:08:04.740Z,19.57
2022-08-26T20:10:36.645Z,20.78
2022-08-26T20:11:58.299Z,16.41
2022-08-26T20:13:19.923Z,17.53
2022-08-26T20:14:42.104Z,22.55
2022-08-26T20:16:03.908Z,20.79
2022-08-26T20:17:25.944Z,20.87
2022-08-26T20:18:47.197Z,20.39
2022-08-26T20:20:14.761Z,19.92
2022-08-26T20:21:35.419Z,17.24
2022-08-26T20:22:58.299Z,23.37
2022-08-26T20:24:19.899Z,17.83
2022-08-26T20:25:42.373Z,18.07
2022-08-26T20:27:07.894Z,22.98
2022-08-26T20:28:29.014Z,18.13
2022-08-26T20:29:50.450Z,17.67
2022-08-26T20:31:13.111Z,19.76
2022-08-26T20:32:35.759Z,14.96
2022-08-26T20:33:57.674Z,18.37
2022-08-26T20:35:19.083Z,19.07
2022-08-26T20:36:42.440Z,17.27
2022-08-26T20:38:03.842Z,18.94
2022-08-26T20:39:28.603Z,19.59
2022-08-26T20:40:50.548Z,16.76
2022-08-26T20:42:20.232Z,14.89
2022-08-26T20:43:38.338Z,19.38
2022-08-26T20:45:01.197Z,17.48
2022-08-26T20:46:25.556Z,17.47
2022-08-26T20:47:46.813Z,16.75
2022-08-26T20:49:08.490Z,14.29
2022-08-26T20:50:32.805Z,19.73
2022-08-26T20:51:54.027Z,20.17
2022-08-26T20:53:15.998Z,17.13
2022-08-26T20:54:39.974Z,15.98